createdAt,value
2019-01-23T00:01:58.817Z,22.96
2019-01-23T00:04:25.459Z,22.98
2019-01-23T00:06:52.106Z,23.02
2019-01-23T00:09:18.755Z,22.99
2019-01-23T00:11:45.438Z,23.01
2019-01-23T00:14:12.071Z,23.01
2019-01-23T00:16:38.725Z,23.00
2019-01-23T00:19:05.404Z,23.00
2019-01-23T00:21:32.086Z,23.00
2019-01-23T00:23:58.730Z,23.02
2019-01-23T00:26:25.370Z,22.99
2019-01-23T00:28:52.009Z,22.98
2019-01-23T00:31:18.653Z,22.98
2019-01-23T00:33:45.302Z,23.00
2019-01-23T00:36:11.968Z,23.00
2019-01-23T00:38:38.661Z,23.00
2019-01-23T00:41:05.298Z,22.99
2019-01-23T00:43:31.979Z,22.99
2019-01-23T00:45:58.616Z,23.00
2019-01-23T00:48:25.269Z,22.99
2019-01-23T00:50:51.900Z,23.01
2019-01-23T00:53:18.582Z,23.01
2019-01-23T00:55:45.230Z,22.98
2019-01-23T00:58:15.205Z,22.96
2019-01-23T01:00:41.845Z,22.98
2019-01-23T01:03:08.494Z,22.96
2019-01-23T01:05:35.145Z,22.99
2019-01-23T01:08:01.828Z,22.99
2019-01-23T01:10:28.499Z,22.99
2019-01-23T01:12:55.135Z,23.01
2019-01-23T01:15:21.784Z,23.01
2019-01-23T01:17:48.427Z,22.98
2019-01-23T01:20:15.063Z,22.99
2019-01-23T01:22:41.718Z,22.97
2019-01-23T01:25:08.366Z,22.98
2019-01-23T01:27:35.074Z,22.98
2019-01-23T01:30:01.711Z,22.97
2019-01-23T01:32:28.436Z,22.98
2019-01-23T01:34:55.089Z,22.94
2019-01-23T01:37:21.742Z,22.98
2019-01-23T01:39:48.385Z,22.98
2019-01-23T01:42:15.086Z,22.99
2019-01-23T01:44:41.742Z,22.97
2019-01-23T01:47:08.394Z,22.95
2019-01-23T01:49:35.051Z,22.96
2019-01-23T01:52:01.732Z,22.98
2019-01-23T01:54:28.378Z,22.99
2019-01-23T01:56:55.020Z,22.97
2019-01-23T01:59:21.683Z,22.96
2019-01-23T02:01:48.331Z,22.96
2019-01-23T02:04:15.012Z,22.96
2019-01-23T02:06:41.655Z,22.95
2019-01-23T02:09:08.321Z,22.99
2019-01-23T02:11:34.959Z,22.97
2019-01-23T02:14:01.644Z,22.92
2019-01-23T02:16:28.291Z,22.97
2019-01-23T02:18:54.935Z,22.94
2019-01-23T02:21:21.670Z,22.96
2019-01-23T02:23:48.303Z,22.75
2019-01-23T02:26:14.961Z,22.65
2019-01-23T02:28:41.595Z,22.66
2019-01-23T02:31:08.248Z,22.83
2019-01-23T02:33:34.881Z,22.90
2019-01-23T02:36:01.522Z,22.98
2019-01-23T02:38:28.169Z,23.01
2019-01-23T02:40:54.800Z,23.04
2019-01-23T02:43:21.453Z,23.04
2019-01-23T02:45:48.107Z,23.03
2019-01-23T02:48:14.752Z,23.06
2019-01-23T02:50:41.408Z,23.06
2019-01-23T02:53:08.153Z,23.03
2019-01-23T02:55:34.796Z,23.05
2019-01-23T02:58:01.452Z,23.07
2019-01-23T03:00:28.091Z,23.05
2019-01-23T03:02:54.736Z,23.03
2019-01-23T03:05:21.378Z,23.05
2019-01-23T03:07:48.051Z,23.01
2019-01-23T03:10:14.789Z,23.04
2019-01-23T03:12:41.431Z,23.04
2019-01-23T03:15:08.065Z,23.04
2019-01-23T03:17:34.806Z,23.05
2019-01-23T03:20:01.454Z,23.06
2019-01-23T03:22:28.085Z,23.03
2019-01-23T03:24:54.774Z,23.06
2019-01-23T03:27:21.421Z,23.05
2019-01-23T03:29:48.061Z,23.01
2019-01-23T03:32:14.822Z,23.05
2019-01-23T03:34:41.474Z,23.07
2019-01-23T03:37:08.109Z,23.09
2019-01-23T03:39:34.753Z,23.06
2019-01-23T03:42:01.404Z,23.07
2019-01-23T03:44:28.058Z,23.06
2019-01-23T03:46:54.701Z,23.08
2019-01-23T03:49:21.349Z,23.09
2019-01-23T03:51:47.990Z,23.06
2019-01-23T03:54:14.650Z,23.07
2019-01-23T03:56:42.584Z,23.04
2019-01-23T03:59:07.934Z,23.06
2019-01-23T04:01:34.585Z,23.08
2019-01-23T04:04:01.284Z,23.10
2019-01-23T04:06:27.928Z,23.13
2019-01-23T04:08:54.568Z,22.58
2019-01-23T04:11:21.206Z,22.17
2019-01-23T04:13:47.853Z,22.29
2019-01-23T04:16:14.504Z,22.19
2019-01-23T04:18:41.154Z,21.91
2019-01-23T04:21:07.792Z,21.92
2019-01-23T04:23:34.438Z,21.87
2019-01-23T04:26:01.116Z,21.72
2019-01-23T04:28:27.756Z,21.93
2019-01-23T04:30:54.403Z,22.40
2019-01-23T04:33:21.049Z,22.57
2019-01-23T04:35:47.687Z,22.63
2019-01-23T04:38:14.334Z,22.74
2019-01-23T04:40:40.978Z,22.81
2019-01-23T04:43:07.632Z,22.88
2019-01-23T04:45:34.277Z,22.86
2019-01-23T04:48:00.922Z,22.88
2019-01-23T04:50:27.573Z,22.88
2019-01-23T04:52:54.226Z,22.90
2019-01-23T04:55:20.954Z,22.90
2019-01-23T04:57:47.596Z,22.93
2019-01-23T05:00:14.247Z,23.12
2019-01-23T05:02:40.884Z,23.10
2019-01-23T05:05:07.529Z,23.07
2019-01-23T05:07:34.170Z,23.04
2019-01-23T05:10:00.852Z,23.04
2019-01-23T05:12:27.493Z,23.03
2019-01-23T05:14:54.155Z,23.27
2019-01-23T05:17:20.791Z,23.08
2019-01-23T05:19:47.446Z,23.29
2019-01-23T05:22:14.090Z,23.16
2019-01-23T05:24:40.751Z,23.35
2019-01-23T05:27:07.399Z,23.30
2019-01-23T05:29:34.049Z,23.14
2019-01-23T05:32:00.699Z,23.08
2019-01-23T05:34:27.356Z,23.11
2019-01-23T05:36:54.005Z,23.16
2019-01-23T05:39:20.695Z,23.09
2019-01-23T05:41:47.325Z,23.06
2019-01-23T05:44:13.961Z,23.07
2019-01-23T05:46:40.622Z,23.24
2019-01-23T05:49:07.389Z,23.13
2019-01-23T05:51:34.026Z,23.20
2019-01-23T05:54:01.709Z,23.27
2019-01-23T05:56:28.348Z,23.15
2019-01-23T05:58:54.998Z,23.12
2019-01-23T06:01:21.665Z,23.13
2019-01-23T06:03:48.309Z,23.14
2019-01-23T06:06:14.966Z,23.16
2019-01-23T06:08:41.616Z,23.14
2019-01-23T06:11:08.265Z,23.16
2019-01-23T06:13:34.915Z,23.19
2019-01-23T06:16:01.557Z,23.18
2019-01-23T06:18:28.248Z,23.15
2019-01-23T06:20:55.679Z,23.21
2019-01-23T06:23:21.570Z,23.20
2019-01-23T06:25:48.220Z,23.24
2019-01-23T06:28:14.873Z,23.31
2019-01-23T06:30:41.561Z,23.41
2019-01-23T06:33:08.255Z,23.45
2019-01-23T06:35:34.965Z,23.42
2019-01-23T06:38:01.593Z,23.53
2019-01-23T06:40:28.254Z,23.47
2019-01-23T06:42:54.934Z,23.48
2019-01-23T06:45:21.573Z,23.36
2019-01-23T06:47:48.226Z,23.39
2019-01-23T06:50:14.875Z,23.41
2019-01-23T06:52:41.528Z,23.38
2019-01-23T06:55:08.396Z,23.43
2019-01-23T06:57:34.829Z,23.64
2019-01-23T07:00:01.484Z,23.54
2019-01-23T07:02:28.124Z,23.55
2019-01-23T07:04:54.794Z,23.47
2019-01-23T07:07:21.446Z,23.46
2019-01-23T07:09:48.096Z,23.48
2019-01-23T07:12:14.798Z,23.48
2019-01-23T07:14:41.448Z,23.50
2019-01-23T07:17:08.149Z,23.77
2019-01-23T07:19:34.864Z,23.68
2019-01-23T07:22:01.539Z,23.73
2019-01-23T07:24:28.181Z,23.72
2019-01-23T07:26:57.054Z,23.94
2019-01-23T07:29:23.831Z,23.94
2019-01-23T07:31:50.483Z,23.77
2019-01-23T07:34:17.126Z,23.80
2019-01-23T07:36:47.699Z,23.74
2019-01-23T07:39:14.358Z,23.68
2019-01-23T07:41:41.114Z,23.76
2019-01-23T07:44:07.870Z,23.78
2019-01-23T07:46:34.601Z,23.78
2019-01-23T07:49:01.337Z,23.75
2019-01-23T07:51:28.178Z,23.79
2019-01-23T07:53:54.936Z,23.86
2019-01-23T07:56:24.171Z,24.02
2019-01-23T07:58:50.913Z,23.92
2019-01-23T08:01:17.703Z,23.93
2019-01-23T08:03:44.544Z,23.91
2019-01-23T08:06:11.202Z,23.99
2019-01-23T08:08:37.879Z,24.23
2019-01-23T08:11:04.620Z,24.05
2019-01-23T08:13:31.264Z,24.14
2019-01-23T08:15:57.961Z,24.07
2019-01-23T08:18:24.610Z,24.04
2019-01-23T08:20:51.258Z,24.12
2019-01-23T08:23:17.911Z,24.19
2019-01-23T08:25:44.593Z,24.20
2019-01-23T08:28:11.289Z,24.31
2019-01-23T08:30:38.935Z,24.67
2019-01-23T08:33:04.664Z,24.69
2019-01-23T08:35:31.304Z,24.60
2019-01-23T08:37:57.952Z,24.45
2019-01-23T08:40:24.940Z,24.42
2019-01-23T08:42:51.640Z,24.47
2019-01-23T08:45:18.309Z,24.49
2019-01-23T08:47:44.990Z,24.51
2019-01-23T08:50:11.671Z,24.51
2019-01-23T08:52:38.353Z,24.58
2019-01-23T08:55:05.529Z,24.70
2019-01-23T08:57:33.144Z,24.82
2019-01-23T08:59:59.836Z,24.80
2019-01-23T09:02:26.625Z,24.88
2019-01-23T09:04:53.267Z,24.78
2019-01-23T09:07:19.921Z,24.82
2019-01-23T09:09:46.605Z,24.79
2019-01-23T09:12:13.363Z,24.79
2019-01-23T09:14:40.044Z,24.77
2019-01-23T09:17:06.838Z,24.87
2019-01-23T09:19:33.488Z,25.07
2019-01-23T09:22:00.169Z,24.89
2019-01-23T09:24:26.833Z,24.88
2019-01-23T09:26:53.573Z,24.91
2019-01-23T09:29:20.356Z,25.05
2019-01-23T09:31:47.008Z,25.05
2019-01-23T09:34:13.712Z,25.04
2019-01-23T09:36:40.407Z,25.04
2019-01-23T09:39:07.106Z,25.04
2019-01-23T09:41:33.764Z,25.14
2019-01-23T09:44:00.561Z,25.21
2019-01-23T09:46:27.230Z,25.19
2019-01-23T09:48:53.914Z,25.17
2019-01-23T09:51:20.567Z,25.34
2019-01-23T09:53:47.219Z,25.42
2019-01-23T09:56:13.930Z,25.42
2019-01-23T09:58:40.594Z,25.36
2019-01-23T10:01:07.545Z,25.52
2019-01-23T10:03:34.202Z,25.71
2019-01-23T10:06:00.859Z,25.44
2019-01-23T10:08:27.556Z,25.54
2019-01-23T10:10:54.202Z,25.49
2019-01-23T10:13:20.890Z,25.54
2019-01-23T10:15:47.505Z,25.55
2019-01-23T10:18:14.151Z,25.50
2019-01-23T10:20:40.820Z,25.50
2019-01-23T10:23:07.465Z,25.57
2019-01-23T10:25:34.198Z,24.75
2019-01-23T10:28:00.834Z,24.38
2019-01-23T10:30:27.503Z,24.50
2019-01-23T10:32:54.243Z,24.41
2019-01-23T10:35:20.911Z,24.32
2019-01-23T10:37:47.557Z,24.61
2019-01-23T10:40:14.207Z,24.75
2019-01-23T10:42:40.995Z,25.10
2019-01-23T10:45:07.631Z,25.13
2019-01-23T10:47:34.326Z,25.11
2019-01-23T10:50:00.981Z,25.08
2019-01-23T10:52:27.752Z,25.14
2019-01-23T10:54:54.408Z,25.28
2019-01-23T10:57:21.053Z,25.31
2019-01-23T10:59:47.719Z,25.14
2019-01-23T11:02:14.355Z,25.29
2019-01-23T11:04:41.736Z,25.13
2019-01-23T11:07:07.658Z,25.30
2019-01-23T11:09:34.370Z,25.47
2019-01-23T11:12:03.623Z,25.28
2019-01-23T11:14:30.325Z,25.27
2019-01-23T11:16:56.976Z,25.35
2019-01-23T11:19:23.671Z,25.35
2019-01-23T11:21:50.323Z,25.35
2019-01-23T11:24:17.025Z,25.30
2019-01-23T11:26:46.718Z,25.34
2019-01-23T11:29:13.360Z,25.24
2019-01-23T11:31:40.026Z,24.84
2019-01-23T11:34:06.677Z,24.82
2019-01-23T11:36:36.168Z,24.58
2019-01-23T11:39:02.827Z,24.60
2019-01-23T11:41:31.769Z,24.78
2019-01-23T11:43:58.458Z,24.98
2019-01-23T11:46:25.415Z,25.14
2019-01-23T11:48:51.784Z,25.22
2019-01-23T11:51:18.475Z,25.41
2019-01-23T11:53:45.155Z,25.41
2019-01-23T11:56:11.806Z,25.43
2019-01-23T11:58:38.642Z,25.47
2019-01-23T12:01:05.306Z,25.52
2019-01-23T12:03:31.943Z,25.54
2019-01-23T12:05:58.581Z,25.72
2019-01-23T12:08:25.268Z,25.45
2019-01-23T12:10:51.943Z,25.37
2019-01-23T12:13:18.698Z,25.36
2019-01-23T12:15:45.347Z,25.37
2019-01-23T12:18:12.459Z,25.32
2019-01-23T12:20:39.108Z,25.25
2019-01-23T12:23:05.761Z,25.40
2019-01-23T12:25:32.472Z,25.26
2019-01-23T12:27:59.338Z,25.44
2019-01-23T12:30:26.059Z,25.31
2019-01-23T12:32:52.731Z,25.40
2019-01-23T12:35:19.389Z,25.48
2019-01-23T12:37:46.051Z,25.36
2019-01-23T12:40:12.869Z,25.26
2019-01-23T12:42:39.398Z,25.39
2019-01-23T12:45:06.036Z,25.29
2019-01-23T12:47:32.758Z,25.36
2019-01-23T12:49:59.394Z,25.43
2019-01-23T12:52:26.474Z,25.34
2019-01-23T12:54:53.134Z,25.27
2019-01-23T12:57:19.765Z,25.41
2019-01-23T12:59:46.526Z,25.51
2019-01-23T13:02:13.192Z,25.37
2019-01-23T13:04:39.858Z,25.16
2019-01-23T13:07:06.526Z,25.21
2019-01-23T13:09:33.177Z,25.34
2019-01-23T13:11:59.862Z,25.39
2019-01-23T13:14:26.522Z,25.28
2019-01-23T13:16:53.183Z,25.35
2019-01-23T13:19:19.941Z,25.42
2019-01-23T13:21:46.612Z,25.29
2019-01-23T13:24:13.309Z,25.33
2019-01-23T13:26:40.055Z,25.27
2019-01-23T13:29:06.698Z,25.34
2019-01-23T13:31:33.346Z,25.36
2019-01-23T13:34:00.010Z,25.29
2019-01-23T13:36:26.675Z,25.39
2019-01-23T13:38:53.558Z,25.35
2019-01-23T13:41:20.265Z,25.15
2019-01-23T13:43:47.039Z,25.13
2019-01-23T13:46:13.833Z,25.23
2019-01-23T13:48:40.481Z,24.63
2019-01-23T13:51:07.174Z,24.02
2019-01-23T13:53:33.817Z,23.64
2019-01-23T13:56:00.478Z,24.02
2019-01-23T13:58:27.148Z,24.48
2019-01-23T14:00:53.807Z,24.68
2019-01-23T14:03:20.557Z,24.91
2019-01-23T14:05:47.262Z,24.78
2019-01-23T14:08:13.951Z,24.91
2019-01-23T14:10:42.848Z,24.81
2019-01-23T14:13:09.520Z,24.92
2019-01-23T14:15:36.292Z,24.95
2019-01-23T14:18:02.976Z,25.04
2019-01-23T14:20:29.681Z,24.86
2019-01-23T14:22:56.409Z,24.81
2019-01-23T14:25:23.070Z,24.75
2019-01-23T14:27:49.779Z,24.82
2019-01-23T14:30:16.451Z,24.76
2019-01-23T14:32:43.364Z,24.76
2019-01-23T14:35:10.031Z,24.86
2019-01-23T14:37:36.695Z,24.83
2019-01-23T14:40:03.485Z,24.68
2019-01-23T14:42:30.155Z,24.80
2019-01-23T14:44:57.294Z,24.75
2019-01-23T14:47:26.598Z,24.88
2019-01-23T14:49:53.315Z,24.84
2019-01-23T14:52:20.159Z,24.76
2019-01-23T14:54:46.806Z,24.80
2019-01-23T14:57:13.565Z,24.65
2019-01-23T14:59:40.284Z,24.79
2019-01-23T15:02:10.368Z,24.75
2019-01-23T15:04:33.576Z,24.77
2019-01-23T15:07:00.295Z,24.68
2019-01-23T15:09:26.939Z,24.72
2019-01-23T15:11:53.641Z,24.66
2019-01-23T15:14:20.333Z,24.73
2019-01-23T15:16:47.041Z,24.64
2019-01-23T15:19:13.886Z,24.93
2019-01-23T15:21:40.659Z,24.75
2019-01-23T15:24:08.293Z,24.74
2019-01-23T15:26:35.035Z,24.71
2019-01-23T15:29:01.736Z,24.76
2019-01-23T15:31:28.381Z,24.75
2019-01-23T15:33:55.041Z,24.74
2019-01-23T15:36:21.693Z,24.72
2019-01-23T15:38:48.328Z,24.73
2019-01-23T15:41:15.062Z,24.71
2019-01-23T15:43:41.711Z,24.75
2019-01-23T15:46:08.369Z,24.71
2019-01-23T15:48:35.044Z,24.74
2019-01-23T15:51:01.704Z,24.73
2019-01-23T15:53:28.381Z,24.81
2019-01-23T15:55:55.032Z,24.69
2019-01-23T15:58:21.704Z,24.72
2019-01-23T16:00:48.363Z,24.83
2019-01-23T16:03:15.053Z,24.76
2019-01-23T16:05:41.720Z,24.71
2019-01-23T16:08:08.494Z,24.83
2019-01-23T16:10:35.194Z,24.81
2019-01-23T16:13:02.993Z,25.03
2019-01-23T16:15:28.528Z,24.90
2019-01-23T16:17:55.242Z,24.96
2019-01-23T16:20:21.885Z,25.02
2019-01-23T16:22:48.541Z,24.87
2019-01-23T16:25:15.422Z,24.78
2019-01-23T16:27:42.061Z,24.92
2019-01-23T16:30:08.737Z,24.85
2019-01-23T16:32:35.379Z,24.83
2019-01-23T16:35:02.067Z,24.78
2019-01-23T16:37:28.738Z,24.85
2019-01-23T16:39:55.412Z,24.78
2019-01-23T16:42:22.092Z,24.76
2019-01-23T16:44:48.936Z,24.72
2019-01-23T16:47:15.626Z,24.70
2019-01-23T16:49:42.365Z,24.66
2019-01-23T16:52:08.995Z,24.64
2019-01-23T16:54:35.731Z,24.71
2019-01-23T16:57:02.369Z,24.78
2019-01-23T16:59:29.113Z,24.70
2019-01-23T17:01:55.768Z,24.57
2019-01-23T17:04:22.448Z,24.67
2019-01-23T17:06:49.094Z,24.70
2019-01-23T17:09:15.752Z,24.62
2019-01-23T17:11:42.412Z,24.61
2019-01-23T17:14:09.062Z,24.59
2019-01-23T17:16:35.718Z,24.79
2019-01-23T17:19:02.410Z,24.69
2019-01-23T17:21:29.122Z,24.53
2019-01-23T17:23:55.815Z,24.58
2019-01-23T17:26:25.546Z,24.56
2019-01-23T17:28:52.210Z,24.60
2019-01-23T17:31:18.936Z,24.51
2019-01-23T17:33:45.863Z,24.53
2019-01-23T17:36:12.268Z,24.45
2019-01-23T17:38:38.916Z,24.47
2019-01-23T17:41:05.563Z,24.46
2019-01-23T17:43:32.213Z,24.43
2019-01-23T17:45:58.896Z,24.45
2019-01-23T17:48:25.591Z,24.52
2019-01-23T17:50:52.327Z,24.40
2019-01-23T17:53:18.871Z,24.36
2019-01-23T17:55:45.521Z,24.30
2019-01-23T17:58:12.174Z,24.34
2019-01-23T18:00:38.828Z,24.29
2019-01-23T18:03:05.524Z,24.25
2019-01-23T18:05:32.171Z,24.21
2019-01-23T18:07:58.811Z,24.19
2019-01-23T18:10:25.500Z,24.24
2019-01-23T18:12:52.144Z,24.22
2019-01-23T18:15:18.791Z,24.19
2019-01-23T18:17:45.433Z,24.19
2019-01-23T18:20:12.073Z,24.17
2019-01-23T18:22:38.724Z,24.15
2019-01-23T18:25:05.408Z,24.19
2019-01-23T18:27:33.419Z,24.19
2019-01-23T18:30:00.026Z,24.24
2019-01-23T18:32:25.374Z,24.14
2019-01-23T18:34:52.026Z,24.25
2019-01-23T18:37:18.707Z,23.99
2019-01-23T18:39:45.353Z,23.93
2019-01-23T18:42:12.077Z,23.87
2019-01-23T18:44:38.759Z,23.90
2019-01-23T18:47:05.398Z,24.03
2019-01-23T18:49:32.137Z,24.18
2019-01-23T18:51:58.778Z,24.21
2019-01-23T18:54:25.409Z,24.11
2019-01-23T18:56:52.105Z,24.08
2019-01-23T18:59:18.745Z,24.07
2019-01-23T19:01:45.398Z,23.98
2019-01-23T19:04:12.043Z,24.00
2019-01-23T19:06:38.733Z,23.98
2019-01-23T19:09:05.390Z,23.96
2019-01-23T19:11:33.218Z,23.95
2019-01-23T19:13:58.672Z,23.96
2019-01-23T19:16:25.320Z,23.92
2019-01-23T19:18:51.970Z,24.03
2019-01-23T19:21:18.660Z,24.01
2019-01-23T19:23:45.303Z,24.00
2019-01-23T19:26:11.963Z,23.98
2019-01-23T19:28:38.653Z,24.01
2019-01-23T19:31:05.341Z,23.95
2019-01-23T19:33:31.980Z,24.04
2019-01-23T19:35:58.625Z,23.99
2019-01-23T19:38:25.260Z,23.97
2019-01-23T19:40:51.948Z,24.02
2019-01-23T19:43:18.595Z,23.99
2019-01-23T19:45:45.274Z,24.00
2019-01-23T19:48:12.061Z,24.00
2019-01-23T19:50:38.672Z,24.01
2019-01-23T19:53:05.317Z,23.96
2019-01-23T19:55:31.959Z,23.94
2019-01-23T19:57:58.614Z,23.93
2019-01-23T20:00:25.256Z,23.97
2019-01-23T20:02:51.911Z,23.99
2019-01-23T20:05:18.551Z,23.97
2019-01-23T20:07:48.519Z,23.97
2019-01-23T20:10:15.168Z,23.95
2019-01-23T20:12:41.822Z,23.93
2019-01-23T20:15:08.474Z,23.98
2019-01-23T20:17:35.121Z,23.93
2019-01-23T20:20:01.787Z,23.96
2019-01-23T20:22:28.436Z,23.96
2019-01-23T20:24:55.079Z,23.98
2019-01-23T20:27:21.744Z,23.83
2019-01-23T20:29:48.382Z,23.95
2019-01-23T20:32:15.043Z,23.96
2019-01-23T20:34:41.776Z,23.96
2019-01-23T20:37:08.420Z,23.95
2019-01-23T20:39:35.065Z,23.95
2019-01-23T20:42:01.730Z,23.96
2019-01-23T20:44:28.364Z,23.96
2019-01-23T20:46:55.029Z,23.96
2019-01-23T20:49:21.670Z,23.97
2019-01-23T20:51:49.402Z,23.94
2019-01-23T20:54:14.969Z,23.97
2019-01-23T20:56:41.614Z,23.98
2019-01-23T20:59:08.266Z,23.94
2019-01-23T21:01:34.905Z,23.94
2019-01-23T21:04:01.563Z,23.94
2019-01-23T21:06:28.232Z,23.95
2019-01-23T21:08:54.881Z,23.96
2019-01-23T21:11:21.531Z,23.94
2019-01-23T21:13:48.194Z,23.96
2019-01-23T21:16:14.856Z,23.94
2019-01-23T21:18:41.498Z,23.95
2019-01-23T21:21:08.138Z,23.92
2019-01-23T21:23:34.791Z,23.98
2019-01-23T21:26:01.444Z,23.90
2019-01-23T21:28:28.095Z,23.97
2019-01-23T21:30:54.732Z,23.97
2019-01-23T21:33:21.391Z,23.96
2019-01-23T21:35:48.024Z,23.98
2019-01-23T21:38:14.677Z,23.99
2019-01-23T21:40:41.334Z,23.93
2019-01-23T21:43:07.971Z,24.02
2019-01-23T21:45:34.629Z,24.01
2019-01-23T21:48:01.271Z,24.04
2019-01-23T21:50:27.919Z,24.01
2019-01-23T21:52:54.559Z,23.99
2019-01-23T21:55:21.211Z,24.01
2019-01-23T21:57:47.867Z,23.96
2019-01-23T22:00:14.530Z,24.01
2019-01-23T22:02:41.175Z,24.01
2019-01-23T22:05:07.827Z,24.01
2019-01-23T22:07:34.474Z,24.00
2019-01-23T22:10:01.130Z,24.00
2019-01-23T22:12:27.776Z,24.00
2019-01-23T22:14:54.413Z,24.03
2019-01-23T22:17:21.067Z,24.04
2019-01-23T22:19:47.711Z,24.02
2019-01-23T22:22:14.374Z,23.98
2019-01-23T22:24:41.020Z,23.98
2019-01-23T22:27:07.684Z,23.97
2019-01-23T22:29:34.373Z,24.01
2019-01-23T22:32:01.025Z,23.99
2019-01-23T22:34:27.690Z,24.01
2019-01-23T22:36:54.328Z,23.99
2019-01-23T22:39:20.980Z,24.02
2019-01-23T22:41:47.624Z,23.94
2019-01-23T22:44:14.578Z,23.98
2019-01-23T22:46:41.212Z,23.97
2019-01-23T22:49:07.870Z,23.98
2019-01-23T22:51:34.519Z,23.96
2019-01-23T22:54:01.169Z,23.94
2019-01-23T22:56:27.909Z,23.98
2019-01-23T22:58:54.558Z,23.98
2019-01-23T23:01:21.206Z,23.97
2019-01-23T23:03:47.856Z,23.98
2019-01-23T23:06:14.518Z,23.92
2019-01-23T23:08:41.148Z,23.98
2019-01-23T23:11:07.793Z,23.97
2019-01-23T23:13:35.613Z,23.97
2019-01-23T23:16:01.094Z,23.98
2019-01-23T23:18:27.756Z,24.00
2019-01-23T23:20:54.399Z,23.99
2019-01-23T23:23:21.061Z,23.97
2019-01-23T23:25:47.700Z,23.96
2019-01-23T23:28:14.341Z,23.99
2019-01-23T23:30:41.001Z,24.01
2019-01-23T23:33:07.651Z,24.01
2019-01-23T23:35:34.294Z,24.01
2019-01-23T23:38:00.949Z,24.01
2019-01-23T23:40:27.600Z,24.01
2019-01-23T23:42:54.237Z,24.01
2019-01-23T23:45:20.893Z,24.01
2019-01-23T23:47:47.540Z,23.99
2019-01-23T23:50:14.251Z,23.99
2019-01-23T23:52:40.897Z,24.03
2019-01-23T23:55:07.537Z,24.01
2019-01-23T23:57:34.174Z,23.97
